createdAt,value
2023-01-01T00:02:05.268Z,57.38
2023-01-01T00:05:13.931Z,57.68
2023-01-01T00:08:20.163Z,57.38
2023-01-01T00:11:25.556Z,57.46
2023-01-01T00:14:32.213Z,57.15
2023-01-01T00:17:37.853Z,56.89
2023-01-01T00:20:46.874Z,56.04
2023-01-01T00:23:52.427Z,56.80
2023-01-01T00:26:58.753Z,56.83
2023-01-01T00:30:05.101Z,56.30
2023-01-01T00:33:11.371Z,56.20
2023-01-01T00:36:22.437Z,56.83
2023-01-01T00:39:28.867Z,55.57
2023-01-01T00:42:34.286Z,55.49
2023-01-01T00:45:40.603Z,56.03
2023-01-01T00:48:46.195Z,55.96
2023-01-01T00:51:55.327Z,55.70
2023-01-01T00:55:00.779Z,55.51
2023-01-01T00:58:07.282Z,55.32
2023-01-01T01:01:12.917Z,54.63
2023-01-01T01:04:19.252Z,55.22
2023-01-01T01:07:27.383Z,54.58
2023-01-01T01:10:33.592Z,54.02
2023-01-01T01:13:40.393Z,54.35
2023-01-01T01:16:46.783Z,53.85
2023-01-01T01:19:52.148Z,53.63
2023-01-01T01:23:01.175Z,53.93
2023-01-01T01:26:17.547Z,54.09
2023-01-01T01:29:23.796Z,53.57
2023-01-01T01:32:29.274Z,53.86
2023-01-01T01:35:35.975Z,54.16
2023-01-01T01:38:45.553Z,54.41
2023-01-01T01:41:52.093Z,54.07
2023-01-01T01:45:01.847Z,53.85
2023-01-01T01:48:09.005Z,54.20
2023-01-01T01:51:21.057Z,53.90
2023-01-01T01:54:33.366Z,54.43
2023-01-01T01:57:43.440Z,53.99
2023-01-01T02:00:51.351Z,54.03
2023-01-01T02:04:02.270Z,54.04
2023-01-01T02:07:08.977Z,53.70
2023-01-01T02:10:17.430Z,53.45
2023-01-01T02:13:24.277Z,53.79
2023-01-01T02:16:40.886Z,53.77
2023-01-01T02:20:14.998Z,53.60
2023-01-01T02:23:55.863Z,54.04
2023-01-01T02:27:09.961Z,53.49
2023-01-01T02:30:21.280Z,54.00
2023-01-01T02:33:30.918Z,53.78
2023-01-01T02:36:46.950Z,53.90
2023-01-01T02:40:02.289Z,53.83
2023-01-01T02:43:10.044Z,54.46
2023-01-01T02:49:23.134Z,54.73
2023-01-01T02:53:04.783Z,54.43
2023-01-01T02:56:26.237Z,54.49
2023-01-01T03:00:05.877Z,54.24
2023-01-01T03:03:31.839Z,54.68
2023-01-01T03:06:52.632Z,55.25
2023-01-01T03:10:10.674Z,55.09
2023-01-01T03:13:33.486Z,54.90
2023-01-01T03:16:49.628Z,55.34
2023-01-01T03:20:04.385Z,55.51
2023-01-01T03:23:20.742Z,55.30
2023-01-01T03:26:32.118Z,55.64
2023-01-01T03:29:43.889Z,55.94
2023-01-01T03:33:08.088Z,55.19
2023-01-01T03:36:27.833Z,55.68
2023-01-01T03:39:41.259Z,56.10
2023-01-01T03:42:55.344Z,56.15
2023-01-01T03:46:07.672Z,55.58
2023-01-01T03:49:17.248Z,54.38
2023-01-01T03:52:46.628Z,54.27
2023-01-01T03:56:10.167Z,54.37
2023-01-01T03:59:26.942Z,54.56
2023-01-01T04:02:43.340Z,54.99
2023-01-01T04:05:49.529Z,54.88
2023-01-01T04:09:05.921Z,53.61
2023-01-01T04:12:13.459Z,53.90
2023-01-01T04:15:21.280Z,53.69
2023-01-01T04:18:26.677Z,53.97
2023-01-01T04:21:32.924Z,53.50
2023-01-01T04:24:41.143Z,53.50
2023-01-01T04:27:47.634Z,53.01
2023-01-01T04:34:00.986Z,52.86
2023-01-01T04:37:12.757Z,52.14
2023-01-01T04:40:22.428Z,52.70
2023-01-01T04:43:27.810Z,52.25
2023-01-01T04:46:34.034Z,52.13
2023-01-01T04:49:39.591Z,52.77
2023-01-01T04:52:45.858Z,52.60
2023-01-01T04:55:54.053Z,52.02
2023-01-01T04:59:00.249Z,52.16
2023-01-01T05:02:06.524Z,52.14
2023-01-01T05:05:13.039Z,51.93
2023-01-01T05:08:18.381Z,51.73
2023-01-01T05:11:30.813Z,51.90
2023-01-01T05:14:36.979Z,52.20
2023-01-01T05:17:43.185Z,52.23
2023-01-01T05:20:48.708Z,52.20
2023-01-01T05:24:07.631Z,52.57
2023-01-01T05:27:19.850Z,52.36
2023-01-01T05:30:43.033Z,52.34
2023-01-01T05:34:23.250Z,52.11
2023-01-01T05:37:43.310Z,52.23
2023-01-01T05:41:18.128Z,51.88
2023-01-01T05:44:37.866Z,52.13
2023-01-01T05:47:55.111Z,51.81
2023-01-01T05:51:11.126Z,51.81
2023-01-01T05:57:43.700Z,52.45
2023-01-01T06:00:52.428Z,52.21
2023-01-01T06:04:17.239Z,51.47
2023-01-01T06:07:48.005Z,51.36
2023-01-01T06:11:08.368Z,51.23
2023-01-01T06:18:03.147Z,51.36
2023-01-01T06:21:38.068Z,51.81
2023-01-01T06:24:44.292Z,52.06
2023-01-01T06:27:49.666Z,51.67
2023-01-01T06:30:55.899Z,51.80
2023-01-01T06:34:04.507Z,52.34
2023-01-01T06:37:10.736Z,51.36
2023-01-01T06:40:16.127Z,51.48
2023-01-01T06:43:22.348Z,52.61
2023-01-01T06:46:32.735Z,51.94
2023-01-01T06:49:41.779Z,52.66
2023-01-01T06:52:50.633Z,51.93
2023-01-01T06:55:57.683Z,52.95
2023-01-01T06:59:04.022Z,52.87
2023-01-01T07:02:14.679Z,52.99
2023-01-01T07:05:22.996Z,53.07
2023-01-01T07:08:29.270Z,52.97
2023-01-01T07:11:35.364Z,53.05
2023-01-01T07:14:41.613Z,52.25
2023-01-01T07:17:47.801Z,52.66
2023-01-01T07:21:02.743Z,53.23
2023-01-01T07:24:13.374Z,52.54
2023-01-01T07:27:19.611Z,53.33
2023-01-01T07:30:25.141Z,52.92
2023-01-01T07:33:31.778Z,53.76
2023-01-01T07:36:39.913Z,53.72
2023-01-01T07:39:46.110Z,54.24
2023-01-01T07:42:55.956Z,53.86
2023-01-01T07:46:02.689Z,54.02
2023-01-01T07:49:08.897Z,54.13
2023-01-01T07:52:18.526Z,54.12
2023-01-01T07:55:28.027Z,54.48
2023-01-01T07:58:34.736Z,54.45
2023-01-01T08:01:41.328Z,53.56
2023-01-01T08:04:53.705Z,53.98
2023-01-01T08:08:31.659Z,53.66
2023-01-01T08:11:49.602Z,53.77
2023-01-01T08:15:26.974Z,54.15
2023-01-01T08:18:43.559Z,53.41
2023-01-01T08:22:02.894Z,53.62
2023-01-01T08:25:28.354Z,53.88
2023-01-01T08:28:36.913Z,53.89
2023-01-01T08:31:44.959Z,53.47
2023-01-01T08:34:51.866Z,53.59
2023-01-01T08:37:58.494Z,53.65
2023-01-01T08:41:06.796Z,53.89
2023-01-01T08:44:12.995Z,53.80
2023-01-01T08:47:24.595Z,53.96
2023-01-01T08:51:10.693Z,53.62
2023-01-01T08:54:23.581Z,53.79
2023-01-01T08:57:34.453Z,54.08
2023-01-01T09:00:39.953Z,53.06
2023-01-01T09:03:46.473Z,52.82
2023-01-01T09:06:52.132Z,53.26
2023-01-01T09:09:58.368Z,53.10
2023-01-01T09:13:06.626Z,52.54
2023-01-01T09:16:13.487Z,52.26
2023-01-01T09:19:18.914Z,52.71
2023-01-01T09:22:25.130Z,51.50
2023-01-01T09:25:30.763Z,51.75
2023-01-01T09:28:40.529Z,51.72
2023-01-01T09:31:46.119Z,51.63
2023-01-01T09:34:52.810Z,51.27
2023-01-01T09:37:58.611Z,51.20
2023-01-01T09:41:27.582Z,50.92
2023-01-01T09:45:10.303Z,50.80
2023-01-01T09:48:20.365Z,50.70
2023-01-01T09:51:32.918Z,50.88
2023-01-01T09:54:46.825Z,50.25
2023-01-01T09:57:52.315Z,50.13
2023-01-01T10:01:23.179Z,49.72
2023-01-01T10:04:52.152Z,49.55
2023-01-01T10:08:15.848Z,49.17
2023-01-01T10:11:39.280Z,48.58
2023-01-01T10:14:57.907Z,48.37
2023-01-01T10:18:24.096Z,48.20
2023-01-01T10:21:45.129Z,48.03
2023-01-01T10:25:02.547Z,48.00
2023-01-01T10:28:22.442Z,47.84
2023-01-01T10:31:37.289Z,47.99
2023-01-01T10:34:46.440Z,47.64
2023-01-01T10:37:52.995Z,47.26
2023-01-01T10:41:15.262Z,47.58
2023-01-01T10:44:34.348Z,47.04
2023-01-01T10:47:40.801Z,47.40
2023-01-01T10:50:54.579Z,46.67
2023-01-01T10:54:01.092Z,46.66
2023-01-01T10:57:19.674Z,46.60
2023-01-01T11:00:29.188Z,46.87
2023-01-01T11:03:35.638Z,46.29
2023-01-01T11:06:47.768Z,46.38
2023-01-01T11:10:03.158Z,45.40
2023-01-01T11:13:23.390Z,46.28
2023-01-01T11:16:32.489Z,45.70
2023-01-01T11:19:50.625Z,45.84
2023-01-01T11:23:00.138Z,45.67
2023-01-01T11:26:28.084Z,45.68
2023-01-01T11:29:33.809Z,45.79
2023-01-01T11:32:41.538Z,45.24
2023-01-01T11:35:57.155Z,45.38
2023-01-01T11:39:29.029Z,44.88
2023-01-01T11:42:39.959Z,45.18
2023-01-01T11:45:47.075Z,44.97
2023-01-01T11:48:53.653Z,45.39
2023-01-01T11:52:02.157Z,45.65
2023-01-01T11:55:27.271Z,45.19
2023-01-01T11:58:47.328Z,45.19
2023-01-01T12:02:01.443Z,45.32
2023-01-01T12:05:24.764Z,45.58
2023-01-01T12:08:40.996Z,45.89
2023-01-01T12:11:56.037Z,45.21
2023-01-01T12:15:14.183Z,45.79
2023-01-01T12:18:31.828Z,45.87
2023-01-01T12:21:50.783Z,46.14
2023-01-01T12:25:01.232Z,46.07
2023-01-01T12:28:32.225Z,46.33
2023-01-01T12:31:55.297Z,46.87
2023-01-01T12:35:19.479Z,46.44
2023-01-01T12:38:56.416Z,47.04
2023-01-01T12:42:20.085Z,46.50
2023-01-01T12:46:15.715Z,46.93
2023-01-01T12:49:50.066Z,47.15
2023-01-01T12:53:20.582Z,47.38
2023-01-01T12:56:38.718Z,47.04
2023-01-01T12:59:53.661Z,47.79
2023-01-01T13:03:10.087Z,47.41
2023-01-01T13:06:28.142Z,47.80
2023-01-01T13:09:40.949Z,47.43
2023-01-01T13:12:48.425Z,47.38
2023-01-01T13:15:58.680Z,47.64
2023-01-01T13:19:08.985Z,47.31
2023-01-01T13:22:45.491Z,47.40
2023-01-01T13:25:51.794Z,47.42
2023-01-01T13:29:37.711Z,47.66
2023-01-01T13:33:26.218Z,48.21
2023-01-01T13:36:37.918Z,47.91
2023-01-01T13:40:00.212Z,47.83
2023-01-01T13:43:23.552Z,47.87
2023-01-01T13:46:52.155Z,47.69
2023-01-01T13:50:16.152Z,47.44
2023-01-01T13:54:15.120Z,47.54
2023-01-01T13:58:02.548Z,47.73
2023-01-01T14:01:48.988Z,47.98
2023-01-01T14:05:02.604Z,48.22
2023-01-01T14:08:13.210Z,47.97
2023-01-01T14:11:29.480Z,48.08
2023-01-01T14:14:36.495Z,48.13
2023-01-01T14:17:46.114Z,48.32
2023-01-01T14:20:56.619Z,48.47
2023-01-01T14:24:07.763Z,48.20
2023-01-01T14:27:24.906Z,48.70
2023-01-01T14:30:36.237Z,48.62
2023-01-01T14:33:42.965Z,48.81
2023-01-01T14:36:57.411Z,48.89
2023-01-01T14:40:26.937Z,48.88
2023-01-01T14:43:39.445Z,48.86
2023-01-01T14:46:51.136Z,48.93
2023-01-01T14:50:03.649Z,49.28
2023-01-01T14:53:21.362Z,49.32
2023-01-01T14:56:33.808Z,49.56
2023-01-01T14:59:54.653Z,49.66
2023-01-01T15:03:10.570Z,49.79
2023-01-01T15:06:20.976Z,50.11
2023-01-01T15:09:27.186Z,50.30
2023-01-01T15:12:39.401Z,50.48
2023-01-01T15:15:50.996Z,50.29
2023-01-01T15:18:58.181Z,50.19
2023-01-01T15:22:04.168Z,51.06
2023-01-01T15:25:19.003Z,51.06
2023-01-01T15:28:25.165Z,51.42
2023-01-01T15:31:49.738Z,51.69
2023-01-01T15:34:58.548Z,52.15
2023-01-01T15:38:14.978Z,52.04
2023-01-01T15:41:29.303Z,52.02
2023-01-01T15:44:38.261Z,52.14
2023-01-01T15:47:47.969Z,52.17
2023-01-01T15:51:18.212Z,52.10
2023-01-01T15:54:23.948Z,52.15
2023-01-01T15:57:31.678Z,51.81
2023-01-01T16:00:46.823Z,52.19
2023-01-01T16:04:10.284Z,51.86
2023-01-01T16:07:23.576Z,51.81
2023-01-01T16:10:30.442Z,51.70
2023-01-01T16:13:35.933Z,51.60
2023-01-01T16:16:49.689Z,51.88
2023-01-01T16:19:57.892Z,51.73
2023-01-01T16:23:04.210Z,51.78
2023-01-01T16:26:09.676Z,51.74
2023-01-01T16:29:16.260Z,51.62
2023-01-01T16:32:22.180Z,51.55
2023-01-01T16:35:31.152Z,51.27
2023-01-01T16:38:36.524Z,51.18
2023-01-01T16:41:45.340Z,51.42
2023-01-01T16:44:51.168Z,51.27
2023-01-01T16:47:57.906Z,51.30
2023-01-01T16:51:06.321Z,51.49
2023-01-01T16:54:13.305Z,51.44
2023-01-01T16:57:18.730Z,51.48
2023-01-01T17:00:25.146Z,51.99
2023-01-01T17:03:30.827Z,51.92
2023-01-01T17:06:41.332Z,52.02
2023-01-01T17:09:46.720Z,52.39
2023-01-01T17:12:52.919Z,52.98
2023-01-01T17:15:59.908Z,52.94
2023-01-01T17:19:17.645Z,53.06
2023-01-01T17:22:33.904Z,53.20
2023-01-01T17:25:40.742Z,53.10
2023-01-01T17:28:47.885Z,53.76
2023-01-01T17:31:55.479Z,53.76
2023-01-01T17:35:00.861Z,54.20
2023-01-01T17:38:09.874Z,54.88
2023-01-01T17:41:18.565Z,54.56
2023-01-01T17:44:25.181Z,54.96
2023-01-01T17:47:33.880Z,54.78
2023-01-01T17:50:40.101Z,55.93
2023-01-01T17:53:51.593Z,55.02
2023-01-01T17:57:03.730Z,55.77
2023-01-01T18:00:11.175Z,56.40
2023-01-01T18:03:23.641Z,56.41
2023-01-01T18:06:30.801Z,56.09
2023-01-01T18:09:40.675Z,56.80
2023-01-01T18:12:46.215Z,56.03
2023-01-01T18:15:52.549Z,57.08
2023-01-01T18:19:01.205Z,56.47
2023-01-01T18:22:07.787Z,56.50
2023-01-01T18:25:19.883Z,57.36
2023-01-01T18:28:26.249Z,57.18
2023-01-01T18:31:34.605Z,56.74
2023-01-01T18:34:40.934Z,56.77
2023-01-01T18:37:49.581Z,57.82
2023-01-01T18:41:22.351Z,57.58
2023-01-01T18:44:31.202Z,58.01
2023-01-01T18:47:37.882Z,58.37
2023-01-01T18:50:43.302Z,58.85
2023-01-01T18:53:49.599Z,59.34
2023-01-01T18:57:13.563Z,59.34
2023-01-01T19:00:26.201Z,59.43
2023-01-01T19:03:37.495Z,60.02
2023-01-01T19:06:47.077Z,59.68
2023-01-01T19:09:58.765Z,59.70
2023-01-01T19:13:20.824Z,59.44
2023-01-01T19:16:33.355Z,59.82
2023-01-01T19:19:44.827Z,60.43
2023-01-01T19:22:50.783Z,59.70
2023-01-01T19:26:06.940Z,60.32
2023-01-01T19:29:20.679Z,61.21
2023-01-01T19:32:27.037Z,60.38
2023-01-01T19:35:32.410Z,61.44
2023-01-01T19:38:39.802Z,61.38
2023-01-01T19:41:45.550Z,62.50
2023-01-01T19:44:54.908Z,61.87
2023-01-01T19:48:00.311Z,62.92
2023-01-01T19:51:07.029Z,62.39
2023-01-01T19:54:12.379Z,62.25
2023-01-01T19:57:19.050Z,62.65
2023-01-01T20:00:28.224Z,62.49
2023-01-01T20:06:59.929Z,63.06
2023-01-01T20:10:06.396Z,63.10
2023-01-01T20:13:12.470Z,63.54
2023-01-01T20:16:21.526Z,63.20
2023-01-01T20:19:27.695Z,63.42
2023-01-01T20:22:34.046Z,63.17
2023-01-01T20:25:39.477Z,62.61
2023-01-01T20:29:01.657Z,62.80
2023-01-01T20:32:13.505Z,63.03
2023-01-01T20:35:39.880Z,63.46
2023-01-01T20:38:42.523Z,63.45
2023-01-01T20:41:49.787Z,63.38
2023-01-01T20:44:55.396Z,63.50
2023-01-01T20:48:04.465Z,62.72
2023-01-01T20:51:09.991Z,63.72
2023-01-01T20:54:16.479Z,63.82
2023-01-01T20:57:21.978Z,63.26
2023-01-01T21:00:28.134Z,63.37
2023-01-01T21:03:36.757Z,63.93
2023-01-01T21:06:42.979Z,63.56
2023-01-01T21:09:48.347Z,63.48
2023-01-01T21:12:54.585Z,63.33
2023-01-01T21:16:20.864Z,63.12
2023-01-01T21:19:31.689Z,62.65
2023-01-01T21:22:37.818Z,63.39
2023-01-01T21:25:52.528Z,63.66
2023-01-01T21:28:58.399Z,63.44
2023-01-01T21:32:24.294Z,63.29
2023-01-01T21:35:38.341Z,63.86
2023-01-01T21:38:44.911Z,63.68
2023-01-01T21:41:50.365Z,63.64
2023-01-01T21:45:00.953Z,63.00
2023-01-01T21:48:19.266Z,63.78
2023-01-01T21:51:30.803Z,63.06
2023-01-01T21:54:40.730Z,63.17
2023-01-01T21:57:47.294Z,63.61
2023-01-01T22:00:52.699Z,64.19
2023-01-01T22:04:04.768Z,63.97
2023-01-01T22:10:54.837Z,64.19
2023-01-01T22:14:00.407Z,63.85
2023-01-01T22:17:20.007Z,63.97
2023-01-01T22:20:28.459Z,64.79
2023-01-01T22:23:44.771Z,64.59
2023-01-01T22:26:50.320Z,63.86
2023-01-01T22:29:58.725Z,63.93
2023-01-01T22:33:04.273Z,63.80
2023-01-01T22:36:18.731Z,63.89
2023-01-01T22:39:33.471Z,63.42
2023-01-01T22:42:42.302Z,64.37
2023-01-01T22:45:51.663Z,63.58
2023-01-01T22:49:04.059Z,63.63
2023-01-01T22:52:09.432Z,63.66
2023-01-01T22:55:19.661Z,64.25
2023-01-01T22:58:25.129Z,63.73
2023-01-01T23:01:32.277Z,64.22
2023-01-01T23:04:38.122Z,63.49
2023-01-01T23:07:45.436Z,64.14
2023-01-01T23:10:53.885Z,64.17
2023-01-01T23:14:17.732Z,63.67
2023-01-01T23:17:23.129Z,64.30
2023-01-01T23:20:29.856Z,63.96
2023-01-01T23:23:36.277Z,63.61
2023-01-01T23:26:46.923Z,64.67
2023-01-01T23:29:57.418Z,64.02
2023-01-01T23:33:04.023Z,64.44
2023-01-01T23:36:12.523Z,64.59
2023-01-01T23:39:18.788Z,64.30
2023-01-01T23:42:28.310Z,64.45
2023-01-01T23:45:35.159Z,64.84
2023-01-01T23:48:40.925Z,64.83
2023-01-01T23:51:47.534Z,64.45
2023-01-01T23:54:52.946Z,64.44
2023-01-01T23:58:02.116Z,64.30
